Time;durP1;ratioP1;P1;durP2;ratioP2;P2;SDS_P1;SDS_P2;PMS_P1;PMS_P2;Temp;Humidity;BMP_temperature;BMP_pressure;BME280_temperature;BME280_humidity;BME280_pressure;Samples;Min_cycle;Max_cycle;Signal;HPM_P1;HPM_P2
2021/03/30 00:01:52;;;;;;;8.03;4.10;;;;;;;11.56;39.89;96324.06;5090384;28;20434;-66
2021/03/30 00:04:19;;;;;;;9.50;4.30;;;;;;;11.61;39.80;96327.63;5058000;28;20501;-65
2021/03/30 00:06:45;;;;;;;11.47;4.50;;;;;;;11.53;40.28;96314.81;5071165;28;20426;-64
2021/03/30 00:09:12;;;;;;;8.27;4.40;;;;;;;11.67;40.40;96320.69;5078453;28;20477;-65
2021/03/30 00:11:38;;;;;;;8.80;4.60;;;;;;;11.39;40.61;96281.94;5091054;28;20437;-64
2021/03/30 00:14:05;;;;;;;13.03;6.03;;;;;;;11.60;40.26;96305.03;5078383;28;20456;-64
2021/03/30 00:16:31;;;;;;;14.17;6.17;;;;;;;11.58;39.70;96306.28;5091167;28;20954;-65
2021/03/30 00:18:58;;;;;;;14.23;7.03;;;;;;;11.54;39.82;96303.31;5078856;28;20481;-66
2021/03/30 00:21:25;;;;;;;16.47;7.53;;;;;;;11.39;41.72;96307.38;5050785;28;20549;-66
2021/03/30 00:23:51;;;;;;;14.53;8.97;;;;;;;11.31;41.05;96305.09;5074902;28;20489;-65
2021/03/30 00:26:18;;;;;;;17.33;9.73;;;;;;;11.36;40.42;96313.91;5079799;28;20946;-64
2021/03/30 00:28:44;;;;;;;18.30;10.30;;;;;;;11.15;41.00;96312.59;5080418;28;20852;-64
2021/03/30 00:31:12;;;;;;;19.07;10.73;;;;;;;10.97;40.98;96312.66;5089088;28;21024;-64
2021/03/30 00:33:38;;;;;;;21.00;11.53;;;;;;;10.89;41.63;96307.69;5080904;28;20442;-66
2021/03/30 00:36:05;;;;;;;21.87;11.70;;;;;;;11.10;41.31;96303.78;5088116;28;20452;-64
2021/03/30 00:38:31;;;;;;;20.33;11.03;;;;;;;11.06;41.12;96300.81;5081685;28;20553;-64
2021/03/30 00:40:59;;;;;;;19.40;10.70;;;;;;;10.98;40.83;96295.88;5086588;28;20445;-64
2021/03/30 00:43:28;;;;;;;22.43;11.70;;;;;;;11.02;41.52;96302.28;5082552;28;20460;-64
2021/03/30 00:45:54;;;;;;;20.20;10.80;;;;;;;10.98;41.03;96295.88;5086796;28;20441;-63
2021/03/30 00:48:24;;;;;;;19.67;10.93;;;;;;;10.86;42.03;96292.41;5082628;28;20615;-64
2021/03/30 00:50:55;;;;;;;20.23;10.63;;;;;;;10.83;41.87;96287.63;5086410;28;20441;-64
2021/03/30 00:53:40;;;;;;;22.87;11.67;;;;;;;10.83;42.01;96289.44;5080464;28;20515;-64
2021/03/30 00:56:29;;;;;;;18.87;11.30;;;;;;;10.72;41.74;96288.38;5049019;28;20865;-64
2021/03/30 00:58:57;;;;;;;23.07;11.57;;;;;;;10.85;41.54;96296.09;5072718;28;20447;-64
2021/03/30 01:01:23;;;;;;;21.03;11.63;;;;;;;10.80;41.65;96293.31;5050076;28;20475;-65
2021/03/30 01:03:50;;;;;;;23.87;12.13;;;;;;;10.93;42.05;96293.13;5072102;28;20834;-64
2021/03/30 01:06:17;;;;;;;21.30;11.57;;;;;;;10.79;42.55;96296.16;5089177;28;20457;-64
2021/03/30 01:08:43;;;;;;;17.37;10.17;;;;;;;10.76;41.92;96294.78;5080065;28;20508;-64
2021/03/30 01:11:24;;;;;;;17.37;9.90;;;;;;;10.81;41.54;96294.91;5088713;28;20453;-66
2021/03/30 01:14:08;;;;;;;20.57;10.87;;;;;;;10.72;42.74;96293.63;5077987;28;20453;-66
2021/03/30 01:16:48;;;;;;;20.30;10.07;;;;;;;10.65;42.30;96290.31;5050090;28;20446;-66
2021/03/30 01:19:58;;;;;;;18.83;10.80;;;;;;;10.80;42.45;96285.44;5077476;28;20842;-66
2021/03/30 01:22:45;;;;;;;23.90;10.20;;;;;;;10.70;42.53;96293.06;5085528;28;20463;-65
2021/03/30 01:25:12;;;;;;;14.80;8.07;;;;;;;10.66;41.49;96291.88;5081400;28;20879;-66
2021/03/30 01:28:02;;;;;;;15.60;7.63;;;;;;;10.19;42.41;96269.09;5087033;28;20442;-66
2021/03/30 01:30:32;;;;;;;20.27;8.53;;;;;;;10.43;41.88;96297.03;5075102;28;20445;-66
2021/03/30 01:33:05;;;;;;;13.77;7.33;;;;;;;10.51;42.20;96294.09;5086468;28;20450;-67
2021/03/30 01:35:34;;;;;;;14.23;7.20;;;;;;;10.45;41.48;96284.50;5082291;28;20441;-66
2021/03/30 01:38:01;;;;;;;14.73;6.77;;;;;;;10.52;41.81;96294.91;5085695;28;20488;-63
2021/03/30 01:40:33;;;;;;;14.03;6.43;;;;;;;10.64;41.54;96298.34;5081922;28;20441;-66
2021/03/30 01:43:01;;;;;;;12.03;6.40;;;;;;;10.62;41.21;96289.94;5084721;28;20445;-65
2021/03/30 01:45:29;;;;;;;10.50;6.03;;;;;;;10.44;41.95;96288.13;5081587;28;20488;-63
2021/03/30 01:47:57;;;;;;;9.50;5.13;;;;;;;10.46;41.23;96285.28;5085908;28;20449;-64
2021/03/30 01:50:26;;;;;;;13.37;5.67;;;;;;;10.36;41.06;96288.44;5081297;28;20476;-64
2021/03/30 01:52:53;;;;;;;13.00;5.53;;;;;;;10.46;41.45;96286.09;5086674;28;20454;-68
2021/03/30 01:55:20;;;;;;;10.90;5.47;;;;;;;10.44;41.43;96288.13;5080660;28;20530;-65
2021/03/30 01:57:53;;;;;;;10.47;4.90;;;;;;;10.33;41.38;96291.47;5086195;28;20523;-64
2021/03/30 02:00:27;;;;;;;8.27;4.73;;;;;;;10.22;41.10;96281.75;5084389;28;20441;-64
2021/03/30 02:02:54;;;;;;;11.50;5.17;;;;;;;10.05;41.43;96284.09;5089317;28;20454;-63
2021/03/30 02:05:21;;;;;;;7.93;4.47;;;;;;;10.16;41.15;96280.00;5075503;28;21165;-63
2021/03/30 02:07:53;;;;;;;8.67;4.37;;;;;;;10.19;41.51;96284.81;5090047;28;20485;-65
2021/03/30 02:10:31;;;;;;;9.73;4.87;;;;;;;9.86;42.25;96273.84;5075832;28;20449;-64
2021/03/30 02:12:59;;;;;;;8.90;5.13;;;;;;;9.87;42.03;96271.00;5089752;28;20982;-65
2021/03/30 02:15:27;;;;;;;10.30;4.63;;;;;;;9.74;41.94;96270.34;5085173;28;20532;-65
2021/03/30 02:18:02;;;;;;;10.30;5.03;;;;;;;9.84;41.73;96268.03;5089733;28;20818;-64
2021/03/30 02:20:35;;;;;;;7.20;4.50;;;;;;;9.61;42.63;96267.84;5078019;28;20448;-64
2021/03/30 02:23:07;;;;;;;7.10;4.60;;;;;;;9.81;41.93;96271.09;5088979;28;20473;-64
2021/03/30 02:25:35;;;;;;;11.83;4.73;;;;;;;9.83;41.67;96274.28;5086323;28;20487;-63
2021/03/30 02:28:11;;;;;;;9.23;5.00;;;;;;;9.94;41.70;96265.72;5088759;28;20437;-63
2021/03/30 02:30:39;;;;;;;12.07;5.20;;;;;;;9.98;41.28;96264.28;5086642;28;20452;-64
2021/03/30 02:33:07;;;;;;;13.70;5.20;;;;;;;9.78;41.79;96266.28;5088315;28;20472;-63
2021/03/30 02:35:36;;;;;;;11.40;5.37;;;;;;;9.69;42.39;96267.59;5086333;28;20440;-64
2021/03/30 02:38:04;;;;;;;18.47;5.50;;;;;;;9.67;42.16;96269.63;5088517;28;20473;-64
2021/03/30 02:40:31;;;;;;;14.90;5.40;;;;;;;9.62;42.06;96272.06;5086085;28;20978;-65
2021/03/30 02:42:59;;;;;;;10.37;5.57;;;;;;;9.62;41.86;96266.84;5089602;28;20449;-65
2021/03/30 02:45:29;;;;;;;9.17;5.10;;;;;;;9.51;42.16;96264.91;5084491;28;21016;-64
2021/03/30 02:48:07;;;;;;;12.87;5.60;;;;;;;9.58;41.91;96270.91;5087892;28;20456;-65
2021/03/30 02:50:35;;;;;;;10.93;5.03;;;;;;;9.68;42.19;96266.78;5085933;28;20449;-65
2021/03/30 02:53:02;;;;;;;17.10;5.93;;;;;;;9.57;42.25;96277.16;5087055;28;20980;-63
2021/03/30 02:55:32;;;;;;;12.03;5.53;;;;;;;9.69;42.08;96268.38;5084862;28;20481;-64
2021/03/30 02:57:59;;;;;;;11.73;5.30;;;;;;;9.64;42.35;96270.03;5085924;28;20460;-63
2021/03/30 03:00:27;;;;;;;14.63;6.30;;;;;;;9.52;42.33;96283.03;5084199;28;20460;-65
2021/03/30 03:02:55;;;;;;;13.73;5.50;;;;;;;9.50;42.64;96282.47;5089390;28;20445;-65
2021/03/30 03:05:23;;;;;;;12.63;5.73;;;;;;;9.51;42.09;96284.03;5075316;28;20496;-65
2021/03/30 03:07:50;;;;;;;11.53;6.10;;;;;;;9.53;41.85;96278.59;5088807;28;20485;-65
2021/03/30 03:10:17;;;;;;;11.93;6.23;;;;;;;9.58;42.48;96281.38;5082340;28;20452;-64
2021/03/30 03:12:45;;;;;;;9.97;5.83;;;;;;;9.37;42.91;96284.38;5089199;28;20451;-64
2021/03/30 03:15:14;;;;;;;12.00;5.87;;;;;;;9.46;42.65;96273.44;5082176;28;20445;-63
2021/03/30 03:17:42;;;;;;;10.80;6.23;;;;;;;9.32;42.67;96281.59;5089271;28;20537;-64
2021/03/30 03:20:10;;;;;;;10.53;5.87;;;;;;;9.29;43.34;96279.41;5083128;28;20793;-63
2021/03/30 03:22:37;;;;;;;10.67;6.00;;;;;;;9.29;42.82;96279.41;5088862;28;20838;-65
2021/03/30 03:25:12;;;;;;;10.00;5.37;;;;;;;9.11;43.48;96283.56;5079395;28;20478;-65
2021/03/30 03:27:39;;;;;;;10.63;5.67;;;;;;;9.12;43.63;96277.31;5087116;28;20818;-65
2021/03/30 03:30:07;;;;;;;13.77;6.70;;;;;;;9.04;43.67;96274.97;5082772;28;20528;-65
2021/03/30 03:32:33;;;;;;;10.60;5.53;;;;;;;9.18;42.77;96276.47;5089284;28;20446;-64
2021/03/30 03:35:01;;;;;;;10.73;6.33;;;;;;;9.15;43.01;96287.38;5082754;28;20449;-64
2021/03/30 03:37:28;;;;;;;13.20;6.10;;;;;;;9.13;43.44;96281.53;5090023;28;20441;-64
2021/03/30 03:39:55;;;;;;;16.47;6.20;;;;;;;8.87;43.49;96286.13;5080194;28;20453;-64
2021/03/30 03:42:22;;;;;;;12.25;5.90;;;;;;;9.06;43.15;96277.38;5073275;28;20452;-63
2021/03/30 03:44:48;;;;;;;15.80;6.37;;;;;;;8.91;43.84;96272.44;5076240;28;20246;-64
2021/03/30 03:47:21;;;;;;;16.23;6.70;;;;;;;8.97;43.91;96284.69;5071810;28;20834;-63
2021/03/30 03:49:47;;;;;;;14.70;6.20;;;;;;;8.88;43.37;96283.31;5082273;28;20433;-65
2021/03/30 03:52:15;;;;;;;14.67;6.70;;;;;;;8.68;43.75;96280.03;5089606;28;20561;-63
2021/03/30 03:54:44;;;;;;;15.47;6.37;;;;;;;8.85;43.64;96283.72;5081486;28;20454;-64
2021/03/30 03:57:20;;;;;;;12.67;6.63;;;;;;;8.53;44.65;96295.19;5089874;28;20445;-64
2021/03/30 03:59:47;;;;;;;16.13;6.33;;;;;;;8.52;44.37;96296.16;5082608;28;20444;-66
2021/03/30 04:02:35;;;;;;;17.90;6.13;;;;;;;8.64;44.00;96294.53;5079032;28;21010;-64
2021/03/30 04:05:14;;;;;;;14.87;5.77;;;;;;;8.57;44.10;96272.84;5060601;28;20593;-64
2021/03/30 04:07:48;;;;;;;12.47;6.63;;;;;;;8.94;43.34;96306.00;5074863;28;20450;-64
2021/03/30 04:10:22;;;;;;;12.10;6.07;;;;;;;8.98;43.37;96304.56;5078847;28;20533;-64
2021/03/30 04:12:50;;;;;;;11.68;6.07;;;;;;;8.90;43.95;96297.00;5081513;28;20581;-64
2021/03/30 04:15:21;;;;;;;18.90;6.50;;;;;;;8.90;43.45;96310.06;5079366;28;20209;-65
2021/03/30 04:17:49;;;;;;;14.00;7.27;;;;;;;8.78;44.36;96314.34;5085811;28;20460;-63
2021/03/30 04:20:16;;;;;;;12.47;6.23;;;;;;;8.89;44.39;96318.91;5090992;28;20452;-67
2021/03/30 04:23:04;;;;;;;25.13;8.77;;;;;;;8.87;44.87;96313.06;5091333;28;20506;-66
2021/03/30 04:25:31;;;;;;;24.87;11.00;;;;;;;8.80;45.22;96319.34;5090518;28;20471;-66
2021/03/30 04:27:58;;;;;;;24.23;11.67;;;;;;;8.66;45.00;96318.63;5082868;28;20458;-69
2021/03/30 04:30:26;;;;;;;28.70;12.23;;;;;;;8.50;45.26;96318.31;5070250;28;20982;-70
2021/03/30 04:32:53;;;;;;;30.40;12.57;;;;;;;8.49;45.53;96321.91;5090943;28;20449;-67
2021/03/30 04:35:19;;;;;;;36.40;13.20;;;;;;;8.40;45.35;96329.19;5090812;28;20433;-70
2021/03/30 04:37:46;;;;;;;24.10;12.77;;;;;;;8.36;46.39;96327.97;5088116;28;20543;-65
2021/03/30 04:40:13;;;;;;;25.27;12.17;;;;;;;8.06;46.96;96326.84;5080818;28;20545;-67
2021/03/30 04:42:41;;;;;;;28.27;11.80;;;;;;;8.08;47.59;96325.63;5070687;28;20434;-68
2021/03/30 04:45:09;;;;;;;24.67;12.23;;;;;;;8.17;47.79;96328.84;5073657;28;20480;-68
2021/03/30 04:47:35;;;;;;;27.40;13.37;;;;;;;8.10;47.96;96330.66;5081055;28;20969;-74
2021/03/30 04:50:05;;;;;;;54.37;30.50;;;;;;;8.30;48.14;96328.03;5069298;28;20452;-71
2021/03/30 04:52:31;;;;;;;104.67;75.73;;;;;;;8.36;47.69;96333.22;5070359;28;20438;-68
2021/03/30 04:54:58;;;;;;;48.53;30.65;;;;;;;8.28;47.93;96325.63;5070706;28;20457;-71
2021/03/30 04:57:24;;;;;;;33.50;15.10;;;;;;;8.29;47.93;96331.63;5070378;28;20211;-73
2021/03/30 04:59:50;;;;;;;31.03;14.10;;;;;;;8.49;47.51;96338.38;5069965;28;20438;-72
2021/03/30 05:02:17;;;;;;;30.43;13.90;;;;;;;8.50;48.13;96329.56;5070359;28;20429;-69
2021/03/30 05:04:43;;;;;;;32.07;13.53;;;;;;;8.41;47.50;96325.53;5070852;28;20569;-77
2021/03/30 05:07:10;;;;;;;35.30;13.63;;;;;;;8.62;47.39;96327.88;5079114;28;20827;-70
2021/03/30 05:09:37;;;;;;;29.50;13.07;;;;;;;8.64;47.71;96325.88;5089740;28;20508;-74
2021/03/30 05:12:03;;;;;;;35.87;12.80;;;;;;;8.71;47.81;96326.63;5090188;28;20532;-73
2021/03/30 05:14:30;;;;;;;39.63;12.43;;;;;;;8.68;47.77;96321.03;5090193;28;20934;-74
2021/03/30 05:16:56;;;;;;;32.03;12.00;;;;;;;8.57;47.52;96340.78;5082301;28;20454;-69
2021/03/30 05:19:22;;;;;;;31.07;11.97;;;;;;;8.43;48.45;96339.22;5070540;28;20438;-67
2021/03/30 05:21:49;;;;;;;32.00;10.43;;;;;;;8.33;48.07;96328.41;5069488;28;20453;-69
2021/03/30 05:24:15;;;;;;;19.63;10.07;;;;;;;8.27;49.14;96339.66;5066635;28;20523;-76
2021/03/30 05:26:42;;;;;;;21.47;10.53;;;;;;;8.39;48.80;96337.22;5066863;28;21259;-67
2021/03/30 05:29:08;;;;;;;25.00;10.67;;;;;;;8.35;48.70;96341.25;5067227;28;20450;-72
2021/03/30 05:31:34;;;;;;;27.00;10.83;;;;;;;8.23;48.84;96342.88;5065637;28;20437;-67
2021/03/30 05:34:01;;;;;;;24.03;11.03;;;;;;;8.38;48.88;96336.41;5068552;28;20445;-72
2021/03/30 05:36:27;;;;;;;21.93;10.77;;;;;;;8.62;47.58;96343.56;5070170;28;20448;-73
2021/03/30 05:38:54;;;;;;;22.67;10.67;;;;;;;8.75;47.50;96343.50;5050863;28;20446;-69
2021/03/30 05:41:20;;;;;;;34.80;11.13;;;;;;;8.81;47.28;96340.03;5060708;28;20434;-78
2021/03/30 05:43:46;;;;;;;26.40;11.13;;;;;;;8.85;47.33;96341.22;5053066;28;20442;-73
2021/03/30 05:46:13;;;;;;;35.83;11.47;;;;;;;9.08;47.30;96348.56;5049308;28;20493;-69
2021/03/30 05:48:43;;;;;;;32.83;12.43;;;;;;;9.04;47.02;96348.19;5050035;28;20451;-71
2021/03/30 05:51:17;;;;;;;27.90;11.70;;;;;;;9.00;47.44;96347.00;5049694;28;20200;-72
2021/03/30 05:53:48;;;;;;;30.50;13.87;;;;;;;9.15;47.31;96352.75;5050564;28;20450;-70
2021/03/30 05:56:18;;;;;;;37.53;13.30;;;;;;;9.11;47.08;96359.41;5059410;28;20477;-69
2021/03/30 05:58:46;;;;;;;49.97;14.00;;;;;;;9.16;47.82;96351.72;5070028;28;20434;-67
2021/03/30 06:01:14;;;;;;;62.90;14.53;;;;;;;9.28;47.31;96356.28;5069652;28;20473;-70
2021/03/30 06:03:41;;;;;;;45.60;12.97;;;;;;;9.23;47.70;96357.69;5070129;28;20437;-71
2021/03/30 06:06:08;;;;;;;21.33;11.53;;;;;;;9.32;46.85;96355.66;5069588;28;20521;-74
2021/03/30 06:08:35;;;;;;;28.53;11.20;;;;;;;9.42;46.79;96355.16;5069538;28;20458;-72
2021/03/30 06:11:06;;;;;;;25.73;11.57;;;;;;;9.60;47.25;96363.09;5069965;28;20474;-75
2021/03/30 06:13:57;;;;;;;25.47;11.73;;;;;;;9.65;46.12;96361.41;5069799;28;20438;-71
2021/03/30 06:16:29;;;;;;;22.80;11.70;;;;;;;9.65;46.23;96371.09;5069474;28;20445;-69
2021/03/30 06:19:11;;;;;;;24.13;11.33;;;;;;;9.75;45.24;96367.00;5070578;28;20442;-72
2021/03/30 06:21:41;;;;;;;22.97;11.37;;;;;;;9.80;45.76;96371.56;5070281;28;20432;-72
2021/03/30 06:24:20;;;;;;;22.43;12.30;;;;;;;9.89;45.94;96367.69;5061182;28;20454;-69
2021/03/30 06:26:50;;;;;;;26.20;12.40;;;;;;;10.01;44.75;96365.97;5059595;28;20836;-65
2021/03/30 06:29:44;;;;;;;25.10;11.20;;;;;;;10.17;45.01;96370.66;5059739;28;20445;-72
2021/03/30 06:32:16;;;;;;;26.93;11.97;;;;;;;10.16;44.98;96369.06;5060489;28;20439;-73
2021/03/30 06:34:45;;;;;;;27.83;12.37;;;;;;;10.06;45.06;96355.63;5059810;28;20434;-73
2021/03/30 06:37:28;;;;;;;23.47;12.23;;;;;;;10.16;44.27;96364.63;5059846;28;20455;-66
2021/03/30 06:40:28;;;;;;;34.07;13.30;;;;;;;10.25;44.86;96362.53;5060076;28;20561;-64
2021/03/30 06:43:10;;;;;;;23.17;12.47;;;;;;;10.19;45.12;96352.91;5059271;28;20442;-69
2021/03/30 06:45:38;;;;;;;26.17;12.50;;;;;;;10.51;43.68;96362.22;5070084;28;20491;-70
2021/03/30 06:48:05;;;;;;;32.10;13.93;;;;;;;10.15;43.73;96349.13;5075702;28;20445;-78
2021/03/30 06:50:37;;;;;;;25.97;12.77;;;;;;;10.28;42.92;96346.38;5079996;28;20452;-73
2021/03/30 06:53:12;;;;;;;25.10;13.17;;;;;;;10.59;43.50;96359.31;5073283;28;20442;-67
2021/03/30 06:55:53;;;;;;;24.17;12.53;;;;;;;10.55;42.58;96360.78;5073159;28;20958;-69
2021/03/30 06:58:24;;;;;;;19.30;12.30;;;;;;;10.64;41.65;96350.78;5072905;28;20450;-68
2021/03/30 07:00:50;;;;;;;31.17;13.07;;;;;;;11.03;42.72;96348.47;5073085;28;20825;-69
2021/03/30 07:03:19;;;;;;;14.37;7.67;;;;;;;11.16;39.22;96350.94;5072716;28;20450;-68
2021/03/30 07:05:49;;;;;;;15.67;8.33;;;;;;;11.27;38.92;96345.94;5072677;28;21045;-70
2021/03/30 07:08:20;;;;;;;13.93;7.17;;;;;;;11.29;37.99;96351.75;5072776;28;20926;-76
2021/03/30 07:10:52;;;;;;;18.07;7.40;;;;;;;11.36;37.65;96349.84;5072713;28;20437;-74
2021/03/30 07:13:21;;;;;;;12.73;7.47;;;;;;;11.41;37.09;96339.44;5074012;28;20441;-71
2021/03/30 07:16:14;;;;;;;16.97;9.00;;;;;;;11.67;38.10;96349.59;5077745;28;20438;-69
2021/03/30 07:18:43;;;;;;;14.90;8.00;;;;;;;11.81;37.41;96343.88;5072601;28;20442;-71
2021/03/30 07:21:15;;;;;;;13.77;7.93;;;;;;;12.03;36.67;96339.66;5073490;28;20434;-72
2021/03/30 07:23:46;;;;;;;22.07;8.50;;;;;;;11.99;35.88;96341.16;5072837;28;20499;-69
2021/03/30 07:26:15;;;;;;;16.37;8.40;;;;;;;11.89;35.29;96343.56;5072486;28;20572;-71
2021/03/30 07:28:49;;;;;;;12.97;8.30;;;;;;;11.92;36.00;96350.16;5072138;28;20445;-71
2021/03/30 07:31:28;;;;;;;19.10;9.10;;;;;;;11.39;35.86;96344.94;5072424;28;21086;-71
2021/03/30 07:34:02;;;;;;;12.90;8.53;;;;;;;11.33;36.16;96339.78;5072134;28;20540;-71
2021/03/30 07:36:38;;;;;;;27.13;8.60;;;;;;;11.80;36.03;96346.75;5072200;28;20442;-66
2021/03/30 07:39:06;;;;;;;12.50;7.87;;;;;;;11.92;35.56;96345.72;5072429;28;20540;-70
2021/03/30 07:41:32;;;;;;;12.47;7.70;;;;;;;12.11;36.44;96343.78;5071812;28;20427;-73
2021/03/30 07:44:01;;;;;;;15.80;7.00;;;;;;;12.27;34.72;96348.34;5071811;28;20426;-69
2021/03/30 07:46:30;;;;;;;17.20;8.40;;;;;;;12.54;35.68;96344.19;5072210;28;20513;-68
2021/03/30 07:48:59;;;;;;;19.13;8.23;;;;;;;12.65;35.80;96350.44;5071882;28;20456;-67
2021/03/30 07:51:38;;;;;;;17.33;8.00;;;;;;;12.70;35.61;96343.44;5071805;28;20456;-73
2021/03/30 07:54:16;;;;;;;13.73;7.13;;;;;;;12.79;34.66;96347.31;5071709;28;20852;-71
2021/03/30 07:56:47;;;;;;;12.30;7.07;;;;;;;13.00;34.43;96354.56;5069762;28;20449;-68
2021/03/30 07:59:46;;;;;;;12.90;6.83;;;;;;;12.98;33.38;96347.94;5071509;28;20874;-70
2021/03/30 08:02:16;;;;;;;13.93;6.67;;;;;;;12.73;33.88;96353.53;5071772;28;20940;-70
2021/03/30 08:05:02;;;;;;;14.80;7.87;;;;;;;12.58;33.30;96345.31;5071611;28;20488;-73
2021/03/30 08:07:49;;;;;;;14.23;7.47;;;;;;;12.67;33.31;96351.81;5071380;28;20437;-73
2021/03/30 08:10:26;;;;;;;13.47;7.13;;;;;;;12.93;33.45;96348.66;5071505;28;20452;-67
2021/03/30 08:13:26;;;;;;;17.37;6.67;;;;;;;13.39;33.50;96346.88;5071002;28;20951;-66
2021/03/30 08:15:56;;;;;;;17.30;6.60;;;;;;;13.31;32.82;96349.88;5071725;28;20444;-71
2021/03/30 08:18:25;;;;;;;16.83;7.87;;;;;;;13.48;36.70;96340.19;5071442;28;20541;-71
2021/03/30 08:21:09;;;;;;;14.30;6.27;;;;;;;13.57;33.94;96354.56;5071492;28;20449;-70
2021/03/30 08:23:55;;;;;;;10.87;5.63;;;;;;;13.62;32.28;96336.19;5071180;28;20465;-67
2021/03/30 08:26:34;;;;;;;9.33;5.40;;;;;;;13.81;32.83;96340.19;5063438;28;20503;-65
2021/03/30 08:29:10;;;;;;;10.67;5.20;;;;;;;13.87;31.66;96340.03;5058788;28;21425;-65
2021/03/30 08:31:45;;;;;;;14.90;8.17;;;;;;;14.17;31.91;96339.69;5063689;28;20439;-75
2021/03/30 08:34:14;;;;;;;15.60;6.50;;;;;;;14.19;31.72;96342.88;5059252;28;20458;-72
2021/03/30 08:36:43;;;;;;;9.73;5.43;;;;;;;13.78;30.52;96333.56;5060716;28;20431;-71
2021/03/30 08:39:29;;;;;;;10.23;5.40;;;;;;;13.63;31.15;96332.53;5059189;28;20790;-69
2021/03/30 08:41:57;;;;;;;7.67;4.23;;;;;;;13.76;30.39;96332.19;5061175;28;20496;-74
2021/03/30 08:44:32;;;;;;;7.63;4.73;;;;;;;13.69;30.03;96321.03;5060720;28;20454;-70
2021/03/30 08:47:35;;;;;;;9.27;4.53;;;;;;;13.98;31.53;96335.69;5058711;28;20439;-70
2021/03/30 08:50:14;;;;;;;7.50;5.30;;;;;;;14.13;31.27;96338.56;5061305;28;20462;-68
2021/03/30 08:52:41;;;;;;;7.80;5.20;;;;;;;14.02;30.82;96347.34;5061165;28;20836;-68
2021/03/30 08:55:09;;;;;;;9.43;5.63;;;;;;;13.69;30.11;96326.28;5061142;28;20438;-69
2021/03/30 08:57:39;;;;;;;8.80;4.97;;;;;;;14.09;32.03;96332.16;5060574;28;20537;-71
2021/03/30 09:00:13;;;;;;;14.87;4.93;;;;;;;14.41;31.18;96322.66;5060539;28;20441;-70
2021/03/30 09:02:42;;;;;;;8.53;5.37;;;;;;;14.58;30.85;96326.00;5050437;28;20453;-72
2021/03/30 09:05:19;;;;;;;11.33;4.90;;;;;;;14.78;30.03;96326.25;5058305;28;20497;-69
2021/03/30 09:07:49;;;;;;;13.87;4.87;;;;;;;14.79;29.92;96327.06;5058568;28;20825;-68
2021/03/30 09:10:16;;;;;;;7.30;4.40;;;;;;;14.81;29.22;96320.50;5058720;28;20454;-66
2021/03/30 09:12:44;;;;;;;7.60;4.43;;;;;;;14.99;29.30;96328.09;5056441;28;20435;-71
2021/03/30 09:15:13;;;;;;;9.93;4.30;;;;;;;14.91;29.51;96325.88;5050301;28;20522;-68
2021/03/30 09:18:00;;;;;;;6.27;4.63;;;;;;;15.10;30.40;96316.59;5050718;28;20439;-69
2021/03/30 09:20:29;;;;;;;30.10;6.43;;;;;;;15.33;30.20;96317.34;5050344;28;20434;-72
2021/03/30 09:23:05;;;;;;;16.40;4.53;;;;;;;15.43;30.10;96312.16;5050147;28;20497;-67
2021/03/30 09:25:40;;;;;;;10.30;4.50;;;;;;;15.78;28.82;96300.03;5049944;28;20552;-73
2021/03/30 09:28:15;;;;;;;9.20;4.23;;;;;;;15.97;28.37;96316.28;5049895;28;20478;-72
2021/03/30 09:30:43;;;;;;;7.03;4.20;;;;;;;16.21;28.03;96305.09;5050189;28;20572;-64
2021/03/30 09:33:11;;;;;;;13.90;4.27;;;;;;;16.33;28.34;96291.63;5049936;28;20435;-68
2021/03/30 09:35:37;;;;;;;9.37;4.00;;;;;;;16.51;28.13;96304.47;5049624;28;20458;-74
2021/03/30 09:38:05;;;;;;;6.50;3.70;;;;;;;16.27;27.07;96303.25;5050160;28;20442;-67
2021/03/30 09:40:33;;;;;;;5.83;3.87;;;;;;;16.73;27.44;96302.41;5049680;28;20439;-67
2021/03/30 09:43:04;;;;;;;9.67;5.00;;;;;;;16.71;26.20;96291.31;5050284;28;20537;-68
2021/03/30 09:45:33;;;;;;;9.23;4.10;;;;;;;16.59;25.95;96285.44;5050329;28;20509;-70
2021/03/30 09:48:02;;;;;;;8.90;4.43;;;;;;;16.63;27.29;96286.53;5050310;28;20848;-71
2021/03/30 09:50:29;;;;;;;10.27;4.57;;;;;;;16.74;27.22;96280.22;5050009;28;20438;-71
2021/03/30 09:53:05;;;;;;;8.93;4.20;;;;;;;17.30;27.50;96280.34;5049977;28;20508;-69
2021/03/30 09:55:36;;;;;;;8.00;4.50;;;;;;;17.51;27.56;96281.97;5048216;28;20457;-72
2021/03/30 09:58:11;;;;;;;13.63;5.50;;;;;;;17.73;27.11;96274.53;5049971;28;20835;-69
2021/03/30 10:00:41;;;;;;;8.77;4.23;;;;;;;17.71;26.11;96276.66;5049866;28;20492;-67
2021/03/30 10:03:10;;;;;;;8.17;4.40;;;;;;;17.98;25.10;96271.84;5050009;28;20462;-73
2021/03/30 10:05:41;;;;;;;16.53;5.67;;;;;;;17.80;26.74;96269.75;5049733;28;20493;-69
2021/03/30 10:08:19;;;;;;;10.83;5.13;;;;;;;17.86;26.38;96268.69;5049814;28;20509;-71
2021/03/30 10:10:50;;;;;;;10.17;4.50;;;;;;;18.07;25.82;96268.38;5049428;28;20539;-71
2021/03/30 10:13:36;;;;;;;8.87;4.13;;;;;;;17.60;25.03;96259.16;5049705;28;20964;-68
2021/03/30 10:16:13;;;;;;;9.07;4.93;;;;;;;18.18;25.77;96255.88;5049777;28;20427;-71
2021/03/30 10:18:42;;;;;;;6.83;4.30;;;;;;;17.62;24.31;96254.38;5053248;28;20435;-71
2021/03/30 10:21:14;;;;;;;13.53;4.77;;;;;;;17.81;25.94;96260.75;5056170;28;20435;-71
2021/03/30 10:23:48;;;;;;;7.13;4.10;;;;;;;18.02;24.76;96259.63;5053396;28;20442;-67
2021/03/30 10:26:25;;;;;;;13.10;4.80;;;;;;;18.30;25.44;96253.75;5053018;28;21054;-69
2021/03/30 10:29:02;;;;;;;8.20;4.43;;;;;;;17.63;24.54;96253.31;5053336;28;20450;-71
2021/03/30 10:31:52;;;;;;;6.33;3.77;;;;;;;17.57;25.47;96249.09;5053378;28;20533;-67
2021/03/30 10:34:29;;;;;;;9.50;4.50;;;;;;;18.06;26.56;96240.25;5053338;28;20446;-72
2021/03/30 10:37:00;;;;;;;8.33;4.40;;;;;;;18.22;25.74;96246.31;5053214;28;20952;-70
2021/03/30 10:39:38;;;;;;;6.43;4.17;;;;;;;18.11;27.04;96239.47;5053288;28;20443;-67
2021/03/30 10:42:09;;;;;;;10.70;4.33;;;;;;;18.15;24.01;96243.16;5053046;28;20477;-67
2021/03/30 10:44:42;;;;;;;6.90;4.00;;;;;;;17.16;23.55;96243.75;5053017;28;20537;-69
2021/03/30 10:47:17;;;;;;;5.73;4.17;;;;;;;16.47;24.63;96237.25;5053354;28;20447;-70
2021/03/30 10:49:46;;;;;;;7.20;3.80;;;;;;;16.89;24.19;96243.19;5053103;28;20446;-72
2021/03/30 10:52:20;;;;;;;8.73;3.17;;;;;;;17.29;24.21;96231.03;5053099;28;20958;-70
2021/03/30 10:54:49;;;;;;;10.13;4.60;;;;;;;17.50;23.38;96227.38;5052493;28;20454;-73
2021/03/30 10:57:22;;;;;;;10.33;3.77;;;;;;;18.00;25.03;96214.03;5052967;28;20439;-72
2021/03/30 10:59:49;;;;;;;5.13;3.47;;;;;;;18.19;25.32;96215.81;5052839;28;20831;-67
2021/03/30 11:02:16;;;;;;;7.97;3.50;;;;;;;18.64;24.06;96214.06;5052967;28;20446;-68
2021/03/30 11:04:43;;;;;;;6.87;3.43;;;;;;;18.69;23.73;96208.72;5052856;28;20542;-68
2021/03/30 11:07:10;;;;;;;9.50;3.90;;;;;;;18.46;23.47;96210.19;5052929;28;20434;-66
2021/03/30 11:09:37;;;;;;;6.33;3.70;;;;;;;18.60;23.41;96205.84;5052511;28;20479;-69
2021/03/30 11:12:05;;;;;;;5.63;3.73;;;;;;;18.51;23.78;96218.09;5052347;28;20811;-70
2021/03/30 11:14:31;;;;;;;7.87;4.03;;;;;;;18.46;23.12;96198.75;5052866;28;20442;-71
2021/03/30 11:16:58;;;;;;;7.53;3.37;;;;;;;18.68;23.01;96205.28;5052478;28;20439;-69
2021/03/30 11:19:25;;;;;;;10.47;3.40;;;;;;;18.46;22.55;96194.25;5052489;28;20530;-74
2021/03/30 11:21:53;;;;;;;4.77;2.93;;;;;;;18.68;21.95;96199.97;5052502;28;20450;-68
2021/03/30 11:24:20;;;;;;;7.83;3.00;;;;;;;19.01;22.51;96196.56;5051951;28;20504;-71
2021/03/30 11:26:48;;;;;;;7.30;3.37;;;;;;;19.03;21.31;96186.44;5052566;28;20526;-69
2021/03/30 11:34:47;;;;;;;4.57;3.30;;;;;;;19.28;21.36;96174.03;5052141;28;20458;-71
2021/03/30 11:39:36;;;;;;;8.77;3.50;;;;;;;18.53;22.67;96157.56;5052276;28;20972;-71
2021/03/30 11:42:05;;;;;;;9.37;3.57;;;;;;;19.30;22.22;96161.28;5052008;28;20439;-72
2021/03/30 11:44:32;;;;;;;8.00;3.40;;;;;;;20.16;21.74;96164.66;5052334;28;20426;-68
2021/03/30 11:47:02;;;;;;;4.63;3.43;;;;;;;20.41;21.19;96156.41;5051853;28;20933;-69
2021/03/30 11:49:29;;;;;;;5.63;3.37;;;;;;;20.81;21.81;96155.84;5051967;28;20439;-72
2021/03/30 11:51:56;;;;;;;4.43;3.03;;;;;;;19.93;21.40;96154.81;5050774;28;20427;-70
2021/03/30 11:54:23;;;;;;;8.00;3.73;;;;;;;19.99;22.37;96143.03;5051552;28;20817;-72